Time;durP1;ratioP1;P1;durP2;ratioP2;P2;SDS_P1;SDS_P2;PMS_P1;PMS_P2;Temp;Humidity;BMP_temperature;BMP_pressure;BME280_temperature;BME280_humidity;BME280_pressure;Samples;Min_cycle;Max_cycle;Signal;HPM_P1;HPM_P2
2023/02/20 03:50:38;;;;;;;;;;;;;;;7.14;77.25;100968.19;1087514;54;19938;-83
2023/02/20 03:51:40;;;;;;;;;;;;;;;7.09;77.48;100974.75;1087668;54;19931;-82
2023/02/20 03:54:15;;;;;;;;;;;;;;;7.13;77.57;100970.97;1088543;54;19986;-83
2023/02/20 03:57:13;;;;;;;;;;;;;;;7.27;76.89;100973.59;1088594;54;19919;-83
2023/02/20 03:58:17;;;;;;;;;;;;;;;7.20;77.11;100972.28;1088685;54;19927;-84
2023/02/20 03:59:24;;;;;;;;;;;;;;;7.11;77.34;100970.22;1089504;46;19926;-81
2023/02/20 04:00:28;;;;;;;;;;;;;;;7.18;77.48;100968.84;1094327;46;20153;-81
2023/02/20 04:04:36;;;;;;;;;;;;;;;7.32;76.73;100968.81;1088594;54;19942;-83
2023/02/20 04:05:43;;;;;;;;;;;;;;;7.39;76.38;100971.94;1095023;46;19942;-83
2023/02/20 04:06:48;;;;;;;;;;;;;;;7.45;76.18;100963.53;1089946;46;19938;-82
2023/02/20 04:07:56;;;;;;;;;;;;;;;7.42;76.04;100963.72;1088579;54;19943;-81
2023/02/20 04:09:03;;;;;;;;;;;;;;;7.46;75.99;100965.25;1088612;54;19949;-83
2023/02/20 04:10:06;;;;;;;;;;;;;;;7.43;75.62;100964.59;1089534;47;19927;-84
2023/02/20 04:13:10;;;;;;;;;;;;;;;7.44;75.34;100961.81;1088579;54;19995;-83
2023/02/20 04:14:13;;;;;;;;;;;;;;;7.41;75.76;100961.19;1094545;46;19931;-84
2023/02/20 04:18:23;;;;;;;;;;;;;;;7.46;75.25;100959.06;1088527;54;19923;-83
2023/02/20 04:19:31;;;;;;;;;;;;;;;7.48;75.47;100951.81;1088609;54;19927;-83
2023/02/20 04:25:15;;;;;;;;;;;;;;;7.28;76.36;100948.69;1088378;54;19935;-83
2023/02/20 04:33:25;;;;;;;;;;;;;;;7.14;76.61;100973.53;1087677;54;19977;-83
2023/02/20 04:34:26;;;;;;;;;;;;;;;7.13;76.87;100969.16;1088556;54;19973;-84
2023/02/20 04:35:42;;;;;;;;;;;;;;;7.08;76.75;100975.75;1088590;54;19927;-83
2023/02/20 04:36:46;;;;;;;;;;;;;;;6.97;77.35;100974.63;1088238;54;19943;-83
2023/02/20 04:38:52;;;;;;;;;;;;;;;7.00;77.23;100970.91;1087732;54;19927;-84
2023/02/20 04:41:17;;;;;;;;;;;;;;;6.89;77.75;100982.25;1088549;54;19934;-82
2023/02/20 04:42:44;;;;;;;;;;;;;;;6.87;77.58;100979.66;1092103;47;19939;-83
2023/02/20 04:43:48;;;;;;;;;;;;;;;6.84;77.88;100979.00;1088596;54;19927;-82
2023/02/20 04:45:07;;;;;;;;;;;;;;;6.80;77.96;100977.53;1088580;54;20665;-85
2023/02/20 04:46:11;;;;;;;;;;;;;;;6.77;78.08;100977.69;1102730;47;19983;-82
2023/02/20 04:49:00;;;;;;;;;;;;;;;6.70;78.24;100967.47;1088618;54;19934;-83
2023/02/20 04:50:03;;;;;;;;;;;;;;;6.73;78.07;100971.72;1088855;54;19951;-83
2023/02/20 04:52:31;;;;;;;;;;;;;;;6.66;78.47;100975.75;1088863;54;19927;-83
2023/02/20 04:55:10;;;;;;;;;;;;;;;6.68;78.72;100977.34;1088905;54;19915;-82
2023/02/20 04:56:15;;;;;;;;;;;;;;;6.63;79.04;100971.44;1108734;46;20615;-82
2023/02/20 04:57:19;;;;;;;;;;;;;;;6.65;79.08;100974.03;1088869;54;19966;-84
2023/02/20 05:00:43;;;;;;;;;;;;;;;6.61;78.94;100978.69;1088542;54;19927;-82
2023/02/20 05:01:53;;;;;;;;;;;;;;;6.58;78.82;100970.91;1089733;46;19927;-82
2023/02/20 05:02:57;;;;;;;;;;;;;;;6.64;79.16;100974.97;1090363;46;19950;-81
2023/02/20 05:04:17;;;;;;;;;;;;;;;6.58;79.36;100967.38;1088938;54;19946;-82
2023/02/20 05:05:25;;;;;;;;;;;;;;;6.59;79.39;100969.94;1088775;54;19950;-83
2023/02/20 05:06:26;;;;;;;;;;;;;;;6.60;79.40;100968.13;1088818;54;19950;-81
2023/02/20 05:07:30;;;;;;;;;;;;;;;6.61;79.02;100970.72;1088873;54;19927;-82
2023/02/20 05:08:32;;;;;;;;;;;;;;;6.63;78.72;100970.59;1088874;54;19933;-81
2023/02/20 05:09:50;;;;;;;;;;;;;;;6.59;79.15;100963.75;1096456;46;19950;-83
2023/02/20 05:10:52;;;;;;;;;;;;;;;6.58;79.35;100973.56;1088870;54;19927;-83
2023/02/20 05:12:05;;;;;;;;;;;;;;;6.59;79.14;100975.25;1088873;54;19942;-83
2023/02/20 05:13:07;;;;;;;;;;;;;;;6.65;79.08;100974.03;1088832;54;19937;-82
2023/02/20 05:14:11;;;;;;;;;;;;;;;6.69;78.79;100984.38;1088839;54;19958;-80
2023/02/20 05:42:03;;;;;;;;;;;;;;;7.16;76.50;100962.81;1092630;46;19930;-81
2023/02/20 05:43:04;;;;;;;;;;;;;;;7.12;76.58;100966.59;1088817;54;19935;-83
2023/02/20 05:48:13;;;;;;;;;;;;;;;7.18;76.24;100966.19;1088461;54;19934;-82
2023/02/20 05:53:19;;;;;;;;;;;;;;;7.17;75.94;100961.84;1088486;54;19961;-84
2023/02/20 05:54:20;;;;;;;;;;;;;;;7.13;76.04;100969.16;1088664;46;20671;-86
2023/02/20 05:55:39;;;;;;;;;;;;;;;7.17;76.06;100964.50;1088533;54;19976;-82
2023/02/20 05:56:42;;;;;;;;;;;;;;;7.10;75.85;100968.50;1088604;39;20619;-81
2023/02/20 05:57:49;;;;;;;;;;;;;;;7.07;76.15;100968.72;1093069;39;20707;-83
2023/02/20 05:58:51;;;;;;;;;;;;;;;6.95;76.43;100959.72;1088528;54;19950;-83
2023/02/20 05:59:58;;;;;;;;;;;;;;;6.91;76.34;100964.38;1088474;54;19942;-83
2023/02/20 06:00:59;;;;;;;;;;;;;;;6.83;76.73;100961.34;1088581;54;19950;-86
2023/02/20 06:02:16;;;;;;;;;;;;;;;6.78;76.89;100959.00;1088602;54;20014;-83
2023/02/20 06:03:26;;;;;;;;;;;;;;;6.75;76.98;100963.66;1088487;54;19969;-82
2023/02/20 06:04:32;;;;;;;;;;;;;;;6.85;76.94;100970.09;1088598;54;19927;-83
2023/02/20 06:05:36;;;;;;;;;;;;;;;6.79;77.08;100957.22;1088574;54;19927;-84
2023/02/20 06:06:53;;;;;;;;;;;;;;;6.76;76.82;100966.19;1088602;54;19950;-83
2023/02/20 06:07:57;;;;;;;;;;;;;;;6.73;77.13;100966.41;1088609;54;19926;-84
2023/02/20 06:09:10;;;;;;;;;;;;;;;6.71;76.88;100974.47;1088617;54;19934;-82
2023/02/20 06:10:14;;;;;;;;;;;;;;;6.75;77.38;100966.31;1096713;39;20495;-82
2023/02/20 06:12:59;;;;;;;;;;;;;;;6.75;77.11;100967.19;1088463;54;19978;-83
2023/02/20 06:14:03;;;;;;;;;;;;;;;6.69;77.21;100971.06;1088593;54;19943;-85
2023/02/20 06:15:07;;;;;;;;;;;;;;;6.69;77.09;100965.75;1088531;54;19934;-83
2023/02/20 06:16:09;;;;;;;;;;;;;;;6.65;77.28;100969.56;1088516;54;19930;-82
2023/02/20 06:17:43;;;;;;;;;;;;;;;6.69;77.45;100964.91;1088421;54;19943;-82
2023/02/20 06:18:59;;;;;;;;;;;;;;;6.69;77.12;100964.91;1088497;54;19923;-84
2023/02/20 06:21:52;;;;;;;;;;;;;;;6.63;77.29;100976.75;1088523;54;19934;-84
2023/02/20 06:29:20;;;;;;;;;;;;;;;6.86;76.34;100972.63;1088534;54;19950;-85
2023/02/20 06:38:03;;;;;;;;;;;;;;;6.90;76.14;100980.44;1088080;54;20783;-83
2023/02/20 06:39:05;;;;;;;;;;;;;;;6.91;76.28;100985.63;1092560;39;20542;-82
2023/02/20 06:41:47;;;;;;;;;;;;;;;6.90;76.23;100983.94;1088703;54;20152;-83
2023/02/20 06:42:48;;;;;;;;;;;;;;;6.95;76.12;100976.53;1088689;54;19958;-83
2023/02/20 06:44:00;;;;;;;;;;;;;;;6.92;76.30;100981.19;1088742;54;19987;-84
2023/02/20 06:45:01;;;;;;;;;;;;;;;6.92;76.34;100979.38;1088653;54;19934;-86
2023/02/20 06:54:53;;;;;;;;;;;;;;;6.85;76.32;100983.38;1088080;54;19942;-85
2023/02/20 07:29:03;;;;;;;;;;;;;;;;;;;;;
2023/02/20 07:36:43;;;;;;;;;;;;;;;7.25;74.08;100994.13;1088327;54;20653;-86
2023/02/20 07:37:46;;;;;;;;;;;;;;;7.28;74.33;100993.06;1088400;54;19927;-83
2023/02/20 07:38:59;;;;;;;;;;;;;;;7.27;74.25;100991.34;1088464;54;19952;-82
2023/02/20 07:40:01;;;;;;;;;;;;;;;7.27;73.97;100986.91;1088480;54;19933;-85
2023/02/20 07:41:35;;;;;;;;;;;;;;;7.27;74.06;100986.03;1087965;39;21949;-83
2023/02/20 07:42:36;;;;;;;;;;;;;;;7.32;74.18;100990.09;1088425;54;19942;-83
2023/02/20 07:45:27;;;;;;;;;;;;;;;7.27;74.14;100989.56;1088484;54;19919;-83
2023/02/20 07:46:34;;;;;;;;;;;;;;;7.24;74.23;100987.09;1088472;54;19927;-82
2023/02/20 08:01:37;;;;;;;;;;;;;;;7.57;73.09;100988.47;1088301;54;19922;-83
2023/02/20 08:02:40;;;;;;;;;;;;;;;7.57;73.18;100988.47;1088155;54;19927;-83
2023/02/20 08:05:15;;;;;;;;;;;;;;;7.59;72.92;100986.56;1088563;54;19946;-81
2023/02/20 08:07:53;;;;;;;;;;;;;;;7.67;72.40;100993.16;1088639;54;19979;-82
2023/02/20 08:08:54;;;;;;;;;;;;;;;7.75;72.42;100990.84;1088604;54;19935;-81
2023/02/20 08:10:21;;;;;;;;;;;;;;;7.83;71.71;100993.88;1088629;54;19942;-83
2023/02/20 08:11:23;;;;;;;;;;;;;;;7.76;71.77;100987.22;1088550;54;19946;-83
2023/02/20 08:12:27;;;;;;;;;;;;;;;7.74;72.07;100984.69;1089461;46;19927;-83
2023/02/20 08:13:28;;;;;;;;;;;;;;;7.72;71.84;100981.25;1088591;54;19930;-84
2023/02/20 08:16:03;;;;;;;;;;;;;;;7.79;71.47;100987.03;1088504;54;20610;-83
2023/02/20 08:17:10;;;;;;;;;;;;;;;7.77;71.34;100984.47;1088537;54;19934;-83
2023/02/20 08:18:12;;;;;;;;;;;;;;;7.81;71.49;100987.78;1088554;54;19927;-82
2023/02/20 08:22:18;;;;;;;;;;;;;;;7.94;71.29;100979.81;1088533;54;19935;-84
2023/02/20 08:24:53;;;;;;;;;;;;;;;8.05;70.64;100987.06;1089322;54;19926;-82
2023/02/20 08:26:12;;;;;;;;;;;;;;;8.07;70.71;100985.13;1089243;54;19958;-84
2023/02/20 08:27:14;;;;;;;;;;;;;;;8.07;70.13;100977.16;1089350;54;19923;-83
2023/02/20 08:30:09;;;;;;;;;;;;;;;8.07;70.51;100985.13;1089299;54;19930;-83
2023/02/20 08:31:16;;;;;;;;;;;;;;;8.13;70.25;100971.38;1089290;54;19927;-84
2023/02/20 08:32:36;;;;;;;;;;;;;;;8.15;69.88;100979.28;1089330;54;19927;-84
2023/02/20 08:33:37;;;;;;;;;;;;;;;8.20;69.73;100975.34;1089277;54;19930;-83
2023/02/20 08:37:43;;;;;;;;;;;;;;;8.51;69.78;100957.22;1089327;54;19919;-82
2023/02/20 08:40:10;;;;;;;;;;;;;;;8.55;68.95;100964.06;1122558;39;20597;-83
2023/02/20 08:41:15;;;;;;;;;;;;;;;8.52;68.83;100964.25;1089329;54;19998;-84
2023/02/20 08:49:38;;;;;;;;;;;;;;;9.19;67.35;100957.66;1088335;54;19934;-83
2023/02/20 08:50:39;;;;;;;;;;;;;;;9.16;67.19;100947.22;1089285;54;19927;-83
2023/02/20 08:53:31;;;;;;;;;;;;;;;9.38;66.43;100944.78;1089243;54;19961;-84
2023/02/20 08:54:32;;;;;;;;;;;;;;;9.55;66.00;100947.03;1089312;54;19942;-84
2023/02/20 08:56:01;;;;;;;;;;;;;;;9.37;66.17;100935.91;1089180;54;19950;-85
2023/02/20 08:57:05;;;;;;;;;;;;;;;9.46;66.01;100953.91;1089234;54;19927;-83
2023/02/20 08:58:11;;;;;;;;;;;;;;;9.49;65.61;100948.34;1089235;54;19989;-83
2023/02/20 08:59:28;;;;;;;;;;;;;;;9.81;65.47;100942.38;1089307;54;19950;-83
2023/02/20 09:00:29;;;;;;;;;;;;;;;10.01;64.25;100941.78;1089202;54;19949;-82
2023/02/20 09:03:28;;;;;;;;;;;;;;;10.53;63.67;100939.53;1089235;54;19919;-83
2023/02/20 09:08:06;;;;;;;;;;;;;;;10.72;61.79;100931.72;1088461;54;19945;-84
2023/02/20 09:09:11;;;;;;;;;;;;;;;10.74;61.70;100928.94;1095975;46;19930;-84
2023/02/20 09:16:08;;;;;;;;;;;;;;;11.28;60.07;100924.53;1088334;54;19926;-84
2023/02/20 09:32:15;;;;;;;;;;;;;;;10.69;61.77;100905.22;1088550;54;19939;-84
2023/02/20 09:33:23;;;;;;;;;;;;;;;10.64;61.91;100915.47;1091962;39;20637;-83
2023/02/20 09:34:27;;;;;;;;;;;;;;;10.79;62.02;100912.50;1094748;46;19934;-83
2023/02/20 09:35:30;;;;;;;;;;;;;;;10.76;61.41;100922.50;1088647;54;19946;-83
2023/02/20 09:36:33;;;;;;;;;;;;;;;10.82;61.60;100914.94;1088640;54;19950;-81
2023/02/20 09:38:01;;;;;;;;;;;;;;;10.81;61.50;100915.91;1088695;54;19927;-84
2023/02/20 09:39:05;;;;;;;;;;;;;;;10.72;61.82;100910.34;1088713;54;19927;-86
2023/02/20 09:40:19;;;;;;;;;;;;;;;10.75;61.83;100910.09;1088691;54;19942;-83
2023/02/20 09:41:44;;;;;;;;;;;;;;;10.87;61.60;100902.03;1088759;54;19942;-85
2023/02/20 09:45:28;;;;;;;;;;;;;;;11.22;60.82;100895.59;1088419;54;19927;-82
2023/02/20 11:51:49;;;;;;;;;;;;;;;13.08;49.10;100745.28;1086816;54;19934;-84
2023/02/20 12:05:52;;;;;;;;;;;;;;;13.35;48.22;100708.75;1088481;54;19930;-83
2023/02/20 13:04:30;;;;;;;;;;;;;;;14.02;45.19;100633.31;1088629;54;19923;-86
2023/02/20 13:05:39;;;;;;;;;;;;;;;14.04;44.82;100632.16;1088519;54;19935;-86
2023/02/20 13:16:08;;;;;;;;;;;;;;;14.16;45.23;100619.34;1088497;54;19951;-84
2023/02/20 13:17:17;;;;;;;;;;;;;;;14.20;45.11;100611.81;1088936;54;19942;-84
2023/02/20 13:18:24;;;;;;;;;;;;;;;14.20;45.56;100623.41;1088884;54;20784;-82
2023/02/20 13:23:05;;;;;;;;;;;;;;;14.39;45.18;100605.41;1088268;54;19942;-84
2023/02/20 13:24:26;;;;;;;;;;;;;;;14.51;44.87;100598.78;1092404;39;20518;-86
2023/02/20 13:25:43;;;;;;;;;;;;;;;14.64;44.70;100597.53;1088849;54;19942;-85
2023/02/20 13:26:51;;;;;;;;;;;;;;;14.40;44.71;100588.28;1088885;54;19951;-85
2023/02/20 13:32:22;;;;;;;;;;;;;;;14.59;44.65;100581.88;1088260;54;20764;-85
2023/02/20 13:33:26;;;;;;;;;;;;;;;14.72;44.55;100565.31;1088828;54;19951;-87
2023/02/20 13:34:40;;;;;;;;;;;;;;;14.73;44.19;100567.03;1088832;54;19982;-84
2023/02/20 13:35:49;;;;;;;;;;;;;;;14.85;44.05;100570.28;1088883;54;19927;-86
2023/02/20 13:36:52;;;;;;;;;;;;;;;14.85;44.09;100556.81;1088864;54;19951;-86
2023/02/20 13:37:54;;;;;;;;;;;;;;;14.93;43.83;100556.84;1088887;54;19943;-84
2023/02/20 13:39:13;;;;;;;;;;;;;;;14.77;43.92;100552.22;1102188;46;20748;-86
2023/02/20 14:00:07;;;;;;;;;;;;;;;14.57;43.54;100548.88;1087479;54;19942;-83
2023/02/20 14:03:13;;;;;;;;;;;;;;;14.59;43.41;100541.50;1088851;54;19923;-84
2023/02/20 14:04:20;;;;;;;;;;;;;;;14.52;43.64;100535.06;1094172;46;19951;-84
2023/02/20 14:07:41;;;;;;;;;;;;;;;14.61;43.73;100533.28;1088840;54;19958;-81
2023/02/20 14:08:46;;;;;;;;;;;;;;;14.54;43.86;100533.06;1088776;54;19927;-82
2023/02/20 14:09:58;;;;;;;;;;;;;;;14.50;43.85;100540.59;1088883;54;19927;-84
2023/02/20 14:11:11;;;;;;;;;;;;;;;14.53;44.14;100533.22;1088808;54;19933;-82
2023/02/20 14:12:21;;;;;;;;;;;;;;;14.45;43.94;100545.59;1088818;54;19942;-83
2023/02/20 14:13:26;;;;;;;;;;;;;;;14.53;43.76;100538.59;1088753;54;19939;-82
2023/02/20 14:14:30;;;;;;;;;;;;;;;14.53;43.94;100538.59;1088643;54;19938;-84
2023/02/20 14:15:51;;;;;;;;;;;;;;;14.50;43.90;100537.91;1088651;54;19956;-84
2023/02/20 14:17:02;;;;;;;;;;;;;;;14.55;43.66;100536.59;1088775;54;19968;-84
2023/02/20 14:18:06;;;;;;;;;;;;;;;14.48;44.20;100539.91;1088843;54;19927;-83
2023/02/20 14:19:13;;;;;;;;;;;;;;;14.48;44.16;100531.84;1088754;54;19958;-84
2023/02/20 14:20:21;;;;;;;;;;;;;;;14.44;44.07;100532.31;1088663;54;19927;-84
2023/02/20 14:21:23;;;;;;;;;;;;;;;14.40;44.20;100544.41;1088710;54;19927;-82
2023/02/20 14:22:28;;;;;;;;;;;;;;;14.42;44.47;100543.25;1088694;54;20015;-82
2023/02/20 14:23:35;;;;;;;;;;;;;;;14.48;44.42;100539.91;1088742;54;19943;-83
2023/02/20 14:24:36;;;;;;;;;;;;;;;14.51;44.37;100541.44;1166766;31;20594;-84
2023/02/20 14:25:40;;;;;;;;;;;;;;;14.45;44.71;100540.22;1088682;54;19942;-84
2023/02/20 14:26:41;;;;;;;;;;;;;;;14.26;44.81;100538.59;1088750;54;19950;-85
2023/02/20 14:27:45;;;;;;;;;;;;;;;14.27;45.19;100542.97;1088702;54;19938;-85
2023/02/20 14:28:56;;;;;;;;;;;;;;;14.38;45.09;100528.41;1088654;54;19969;-85
2023/02/20 14:30:14;;;;;;;;;;;;;;;14.33;45.07;100528.06;1093295;46;19937;-86
2023/02/20 14:31:24;;;;;;;;;;;;;;;14.27;45.46;100534.03;1088797;54;19961;-85
2023/02/20 14:32:46;;;;;;;;;;;;;;;14.15;45.77;100538.84;1088789;54;19927;-85
2023/02/20 14:33:51;;;;;;;;;;;;;;;14.20;45.85;100534.69;1088765;54;19949;-85
2023/02/20 14:34:55;;;;;;;;;;;;;;;14.17;45.58;100526.91;1088695;54;19927;-85
2023/02/20 14:36:30;;;;;;;;;;;;;;;14.18;45.84;100525.09;1088616;54;19985;-84
2023/02/20 14:37:53;;;;;;;;;;;;;;;14.22;45.67;100528.31;1088725;54;20021;-85
2023/02/20 14:39:06;;;;;;;;;;;;;;;14.23;45.52;100527.31;1088745;54;19934;-84
2023/02/20 14:40:16;;;;;;;;;;;;;;;14.29;45.48;100522.16;1088700;54;19927;-84
2023/02/20 14:41:34;;;;;;;;;;;;;;;14.32;45.43;100526.38;1088630;54;19942;-84
2023/02/20 14:42:42;;;;;;;;;;;;;;;14.32;45.32;100518.28;1088650;54;19927;-84
2023/02/20 14:43:55;;;;;;;;;;;;;;;14.30;45.11;100515.78;1088637;54;19926;-85
2023/02/20 14:45:02;;;;;;;;;;;;;;;14.34;45.03;100516.31;1088693;54;19938;-85
2023/02/20 14:46:07;;;;;;;;;;;;;;;14.33;45.17;100520.00;1088550;54;19942;-85
2023/02/20 14:47:11;;;;;;;;;;;;;;;14.28;45.50;100511.53;1088608;54;19939;-83
2023/02/20 14:48:25;;;;;;;;;;;;;;;14.27;45.26;100509.84;1089027;46;19945;-83
2023/02/20 14:49:30;;;;;;;;;;;;;;;14.28;45.53;100514.22;1088738;46;19957;-83
2023/02/20 14:50:35;;;;;;;;;;;;;;;14.14;45.64;100518.31;1088398;46;19942;-82
2023/02/20 14:51:36;;;;;;;;;;;;;;;14.23;45.32;100519.25;1088554;46;19943;-82
2023/02/20 14:52:42;;;;;;;;;;;;;;;14.20;45.51;100518.56;1089712;46;19989;-82
2023/02/20 14:53:44;;;;;;;;;;;;;;;14.18;45.69;100509.78;1088248;54;19923;-82
2023/02/20 14:54:58;;;;;;;;;;;;;;;14.26;45.96;100513.56;1088830;46;19930;-82
2023/02/20 14:56:07;;;;;;;;;;;;;;;14.19;45.87;100505.28;1088160;54;19954;-84
2023/02/20 14:57:14;;;;;;;;;;;;;;;14.14;46.29;100500.38;1088156;54;19949;-83
2023/02/20 14:58:16;;;;;;;;;;;;;;;14.24;45.91;100505.63;1088175;54;19950;-82
2023/02/20 14:59:27;;;;;;;;;;;;;;;14.27;45.96;100509.84;1088131;54;19939;-82
2023/02/20 15:00:32;;;;;;;;;;;;;;;14.30;46.07;100513.09;1088136;54;19943;-82
2023/02/20 15:01:38;;;;;;;;;;;;;;;14.22;46.36;100510.31;1089786;46;19939;-82
2023/02/20 15:02:43;;;;;;;;;;;;;;;14.23;46.51;100508.47;1088109;54;19954;-82
2023/02/20 15:03:58;;;;;;;;;;;;;;;14.31;46.36;100500.47;1088111;54;19942;-83
2023/02/20 15:05:04;;;;;;;;;;;;;;;14.28;46.39;100506.16;1088178;54;19934;-82
2023/02/20 15:06:08;;;;;;;;;;;;;;;14.24;46.29;100499.41;1087997;54;19945;-83
2023/02/20 15:07:11;;;;;;;;;;;;;;;14.14;46.38;100497.69;1089433;46;19942;-82
2023/02/20 15:08:22;;;;;;;;;;;;;;;14.18;46.48;100500.88;1089336;46;19995;-82
2023/02/20 15:09:36;;;;;;;;;;;;;;;14.12;46.65;100507.75;1090555;39;20176;-82
2023/02/20 15:10:38;;;;;;;;;;;;;;;14.23;46.27;100503.94;1088007;54;19939;-82
2023/02/20 15:11:47;;;;;;;;;;;;;;;14.23;46.23;100500.41;1088107;54;19943;-82
2023/02/20 15:12:58;;;;;;;;;;;;;;;14.26;46.47;100497.44;1088170;54;19982;-83
2023/02/20 15:14:01;;;;;;;;;;;;;;;14.26;46.51;100497.44;1088082;54;19943;-81
2023/02/20 15:15:09;;;;;;;;;;;;;;;14.19;46.63;100494.50;1088060;54;19942;-82
2023/02/20 15:16:13;;;;;;;;;;;;;;;14.05;47.01;100490.56;1087961;54;19938;-82
2023/02/20 15:17:22;;;;;;;;;;;;;;;14.05;46.87;100490.56;1089431;46;19942;-83
2023/02/20 15:18:34;;;;;;;;;;;;;;;14.13;46.92;100487.91;1088339;47;19943;-83
2023/02/20 15:19:40;;;;;;;;;;;;;;;14.23;46.86;100485.13;1090182;46;19946;-83
2023/02/20 15:20:42;;;;;;;;;;;;;;;14.23;47.01;100474.34;1091289;39;20729;-83
2023/02/20 15:21:56;;;;;;;;;;;;;;;14.16;47.24;100471.47;1090450;46;19936;-82
2023/02/20 15:23:09;;;;;;;;;;;;;;;14.19;46.93;100479.22;1091057;46;19995;-83
2023/02/20 15:24:26;;;;;;;;;;;;;;;14.20;47.31;100472.84;1091471;46;19974;-85
2023/02/20 15:25:33;;;;;;;;;;;;;;;14.23;46.98;100470.84;1088384;54;19943;-83
2023/02/20 15:26:36;;;;;;;;;;;;;;;14.23;46.98;100468.16;1088223;54;19942;-83
2023/02/20 15:27:40;;;;;;;;;;;;;;;14.14;47.52;100476.16;1088301;54;19945;-83
2023/02/20 15:28:41;;;;;;;;;;;;;;;14.10;47.32;100472.09;1088342;54;19927;-83
2023/02/20 15:29:47;;;;;;;;;;;;;;;14.20;47.16;100461.25;1097181;39;19997;-84
2023/02/20 15:31:03;;;;;;;;;;;;;;;14.02;47.15;100461.28;1092353;46;19994;-84
2023/02/20 15:32:16;;;;;;;;;;;;;;;13.96;47.25;100465.44;1090428;46;19931;-87
2023/02/20 15:33:28;;;;;;;;;;;;;;;13.91;47.21;100473.16;1088480;54;19927;-85
2023/02/20 15:34:32;;;;;;;;;;;;;;;13.91;47.04;100461.53;1096268;46;19949;-84
2023/02/20 15:35:37;;;;;;;;;;;;;;;13.86;47.46;100460.19;1088495;47;19933;-84
2023/02/20 15:36:42;;;;;;;;;;;;;;;13.93;47.19;100463.09;1090271;46;19927;-83
2023/02/20 15:37:47;;;;;;;;;;;;;;;13.87;47.27;100463.69;1090737;46;19943;-83
2023/02/20 15:38:50;;;;;;;;;;;;;;;13.84;47.51;100456.78;1089342;46;19927;-83
2023/02/20 15:40:07;;;;;;;;;;;;;;;13.81;47.78;100459.78;1091822;46;19989;-85
2023/02/20 15:41:21;;;;;;;;;;;;;;;13.78;47.72;100456.56;1088875;47;19983;-84
2023/02/20 15:42:27;;;;;;;;;;;;;;;13.78;47.98;100452.06;1088249;54;20004;-84
2023/02/20 15:43:32;;;;;;;;;;;;;;;13.78;47.55;100446.69;1088299;47;19985;-84
2023/02/20 15:44:35;;;;;;;;;;;;;;;13.75;47.79;100449.69;1088744;46;19927;-83
2023/02/20 15:45:39;;;;;;;;;;;;;;;13.73;47.64;100443.59;1088964;46;19951;-85
2023/02/20 15:46:46;;;;;;;;;;;;;;;13.77;48.00;100445.00;1090606;46;19943;-83
2023/02/20 15:47:48;;;;;;;;;;;;;;;13.67;47.77;100445.06;1097692;46;19999;-82
2023/02/20 15:48:52;;;;;;;;;;;;;;;13.68;48.21;100452.13;1090722;46;19933;-83
2023/02/20 15:49:58;;;;;;;;;;;;;;;13.68;48.19;100441.38;1088366;54;20741;-84
2023/02/20 15:51:08;;;;;;;;;;;;;;;13.66;48.46;100437.19;1093757;46;19942;-84
2023/02/20 15:52:27;;;;;;;;;;;;;;;13.65;48.22;100432.78;1088442;54;19954;-84
2023/02/20 15:55:31;;;;;;;;;;;;;;;13.63;48.62;100442.84;1088511;54;19923;-84
2023/02/20 15:56:34;;;;;;;;;;;;;;;13.64;48.64;100433.78;1088340;54;19947;-85
2023/02/20 15:57:41;;;;;;;;;;;;;;;13.54;48.63;100428.53;1088574;54;19934;-83
2023/02/20 15:58:48;;;;;;;;;;;;;;;13.58;48.90;100429.88;1088382;54;19945;-83
2023/02/20 16:01:28;;;;;;;;;;;;;;;13.51;49.22;100435.03;1088533;54;19938;-83
2023/02/20 16:03:05;;;;;;;;;;;;;;;13.49;49.14;100444.25;1093927;46;19934;-85
2023/02/20 16:09:57;;;;;;;;;;;;;;;13.38;49.30;100413.06;1088705;54;19918;-84
2023/02/20 16:11:02;;;;;;;;;;;;;;;13.40;49.41;100417.31;1090033;46;19926;-84
2023/02/20 16:12:18;;;;;;;;;;;;;;;13.50;49.20;100422.63;1088293;54;19962;-85
2023/02/20 16:13:26;;;;;;;;;;;;;;;13.45;49.60;100424.06;1090721;46;19934;-82
2023/02/20 16:14:28;;;;;;;;;;;;;;;13.38;49.68;100429.19;1088426;54;19943;-82
2023/02/20 16:15:40;;;;;;;;;;;;;;;13.37;49.71;100427.50;1088448;54;19942;-84
2023/02/20 16:16:43;;;;;;;;;;;;;;;13.38;49.40;100427.31;1088521;54;19931;-83
2023/02/20 16:17:48;;;;;;;;;;;;;;;13.45;49.60;100426.75;1088468;54;19998;-83
2023/02/20 16:19:15;;;;;;;;;;;;;;;13.38;49.46;100423.81;1089939;46;19934;-85
2023/02/20 16:23:45;;;;;;;;;;;;;;;13.21;49.96;100426.34;1088573;54;19998;-84
2023/02/20 16:31:39;;;;;;;;;;;;;;;13.20;50.04;100411.25;1088131;54;19934;-83
2023/02/20 16:36:20;;;;;;;;;;;;;;;13.16;50.36;100428.63;1088226;54;20044;-86
2023/02/20 16:37:32;;;;;;;;;;;;;;;;;;;;;
2023/02/20 16:45:44;;;;;;;;;;;;;;;12.85;50.70;100445.06;1088131;54;19946;-84
2023/02/20 16:47:11;;;;;;;;;;;;;;;12.82;50.90;100434.66;1088829;54;19931;-85
2023/02/20 16:48:26;;;;;;;;;;;;;;;12.89;50.88;100432.22;1088568;54;19957;-83
2023/02/20 16:49:54;;;;;;;;;;;;;;;12.81;50.85;100432.97;1088657;54;19965;-85
2023/02/20 16:52:51;;;;;;;;;;;;;;;12.81;50.87;100430.28;1088819;54;19931;-82
2023/02/20 16:54:13;;;;;;;;;;;;;;;12.94;50.42;100444.16;1088766;54;20656;-82
2023/02/20 17:06:29;;;;;;;;;;;;;;;12.57;51.29;100437.03;1088425;54;20059;-85
2023/02/20 17:10:31;;;;;;;;;;;;;;;12.45;51.80;100420.28;1088498;54;19923;-85
2023/02/20 17:11:33;;;;;;;;;;;;;;;12.46;52.02;100415.78;1088268;54;19934;-83
2023/02/20 17:12:37;;;;;;;;;;;;;;;12.38;52.06;100421.00;1088110;54;20069;-81
2023/02/20 17:13:41;;;;;;;;;;;;;;;12.46;51.79;100413.94;1088342;54;19927;-82
2023/02/20 17:14:44;;;;;;;;;;;;;;;12.31;52.17;100416.25;1088374;54;19946;-82
2023/02/20 17:16:04;;;;;;;;;;;;;;;12.35;52.07;100421.31;1088368;54;19926;-84
2023/02/20 17:17:15;;;;;;;;;;;;;;;12.31;52.26;100418.94;1088667;54;19927;-84
2023/02/20 18:10:26;;;;;;;;;;;;;;;12.11;52.37;100436.94;1088201;54;19927;-83
2023/02/20 18:11:30;;;;;;;;;;;;;;;12.11;52.50;100442.28;1088221;54;19943;-82
2023/02/20 18:12:34;;;;;;;;;;;;;;;12.01;52.71;100446.81;1088392;54;19962;-83
2023/02/20 18:13:38;;;;;;;;;;;;;;;12.02;52.57;100451.19;1098423;39;20682;-84
2023/02/20 18:14:39;;;;;;;;;;;;;;;11.99;52.63;100451.47;1088174;54;19942;-84
2023/02/20 18:15:43;;;;;;;;;;;;;;;11.90;52.79;100446.94;1088064;54;19943;-83
2023/02/20 18:16:49;;;;;;;;;;;;;;;11.75;53.13;100446.53;1088096;54;19995;-83
2023/02/20 18:17:53;;;;;;;;;;;;;;;11.77;53.03;100444.56;1088201;54;20011;-83
2023/02/20 18:18:58;;;;;;;;;;;;;;;11.84;53.22;100453.72;1088444;54;19947;-83
2023/02/20 18:30:02;;;;;;;;;;;;;;;11.45;53.94;100451.06;1087810;54;19973;-80
2023/02/20 18:31:08;;;;;;;;;;;;;;;11.42;54.33;100456.72;1087730;54;19942;-80
2023/02/20 18:32:12;;;;;;;;;;;;;;;11.47;53.99;100452.63;1087898;54;19941;-81
2023/02/20 18:33:13;;;;;;;;;;;;;;;11.53;54.12;100451.19;1090043;46;19943;-80
2023/02/20 18:34:17;;;;;;;;;;;;;;;11.54;53.77;100452.88;1088257;54;19935;-80
2023/02/20 18:35:18;;;;;;;;;;;;;;;11.46;54.01;100450.94;1088114;54;19939;-81
2023/02/20 18:36:22;;;;;;;;;;;;;;;11.45;54.35;100453.72;1088582;46;19943;-81
2023/02/20 18:37:23;;;;;;;;;;;;;;;11.34;54.20;100444.03;1088180;54;19935;-81
2023/02/20 18:38:27;;;;;;;;;;;;;;;11.30;54.69;100438.09;1088141;54;19954;-81
2023/02/20 18:39:30;;;;;;;;;;;;;;;11.27;54.56;100438.38;1088069;54;19942;-81
2023/02/20 18:40:34;;;;;;;;;;;;;;;11.30;54.80;100437.25;1089032;46;19946;-80
2023/02/20 18:41:35;;;;;;;;;;;;;;;11.36;54.62;100444.72;1088187;54;19927;-80
2023/02/20 18:42:39;;;;;;;;;;;;;;;11.40;54.42;100443.44;1088156;54;19939;-80
2023/02/20 18:43:42;;;;;;;;;;;;;;;11.42;54.46;100437.97;1088202;54;19943;-80
2023/02/20 18:44:47;;;;;;;;;;;;;;;11.33;54.54;100429.81;1088125;54;19942;-80
2023/02/20 18:45:48;;;;;;;;;;;;;;;11.28;54.55;100433.88;1091490;46;19954;-80
2023/02/20 18:46:56;;;;;;;;;;;;;;;11.29;54.74;100435.56;1090279;46;19938;-81
2023/02/20 18:47:57;;;;;;;;;;;;;;;11.28;54.56;100434.72;1088742;46;19943;-80
2023/02/20 18:49:01;;;;;;;;;;;;;;;11.36;54.44;100442.06;1089207;46;19939;-80